Time;durP1;ratioP1;P1;durP2;ratioP2;P2;SDS_P1;SDS_P2;PMS_P1;PMS_P2;Temp;Humidity;BMP_temperature;BMP_pressure;BME280_temperature;BME280_humidity;BME280_pressure;Samples;Min_cycle;Max_cycle;Signal;HPM_P1;HPM_P2
2021/12/12 00:01:43;;;;;;;0.57;0.57;;;;;;;0.41;94.23;100637.88;5085896;28;20449;-70
2021/12/12 00:04:14;;;;;;;0.40;0.40;;;;;;;0.34;94.13;100635.88;5086122;28;20232;-72
2021/12/12 00:07:04;;;;;;;4.80;4.35;;;;;;;0.27;94.28;100639.91;5085723;28;20032;-72
2021/12/12 00:09:52;;;;;;;10.80;9.90;;;;;;;0.23;94.38;100640.59;5085643;28;20059;-71
2021/12/12 00:12:25;;;;;;;2.35;2.25;;;;;;;0.16;94.53;100636.91;5085454;28;20088;-71
2021/12/12 00:14:51;;;;;;;0.40;0.40;;;;;;;0.19;94.68;100647.25;5085568;28;20055;-71
2021/12/12 00:17:18;;;;;;;0.40;0.40;;;;;;;0.17;94.51;100648.03;5085477;28;20020;-72
2021/12/12 00:19:44;;;;;;;2.78;2.67;;;;;;;0.11;94.45;100648.66;5085552;28;20032;-72
2021/12/12 00:22:15;;;;;;;0.50;0.50;;;;;;;0.11;94.49;100651.22;5085302;28;20028;-72
2021/12/12 00:24:40;;;;;;;0.60;0.60;;;;;;;0.07;94.50;100645.13;5085090;28;20028;-71
2021/12/12 00:27:06;;;;;;;0.40;0.40;;;;;;;0.02;94.39;100646.63;5085274;28;20021;-72
2021/12/12 00:29:33;;;;;;;1.73;1.15;;;;;;;0.04;94.36;100656.88;5085364;28;20020;-71
2021/12/12 00:32:10;;;;;;;0.40;0.40;;;;;;;-0.01;94.40;100655.03;5085132;28;20034;-73
2021/12/12 00:34:39;;;;;;;0.50;0.50;;;;;;;-0.09;94.51;100640.22;5085168;28;20052;-72
2021/12/12 00:37:08;;;;;;;2.58;2.40;;;;;;;-0.08;94.50;100647.09;5085207;28;20042;-72
2021/12/12 00:39:36;;;;;;;0.40;0.40;;;;;;;-0.10;94.35;100646.16;5083690;28;20024;-70
2021/12/12 00:42:11;;;;;;;0.40;0.40;;;;;;;-0.15;94.12;100643.41;5084768;28;20016;-70
2021/12/12 00:44:40;;;;;;;4.65;2.95;;;;;;;-0.16;94.14;100646.78;5083660;28;20016;-71
2021/12/12 00:47:09;;;;;;;0.40;0.40;;;;;;;-0.26;94.15;100635.34;5084931;28;20020;-71
2021/12/12 00:49:36;;;;;;;0.50;0.50;;;;;;;-0.31;94.15;100630.06;5085174;28;20024;-71
2021/12/12 00:52:03;;;;;;;0.40;0.40;;;;;;;-0.28;94.37;100647.16;5084675;28;20017;-70
2021/12/12 00:54:33;;;;;;;2.55;2.45;;;;;;;-0.29;94.42;100643.72;5083255;28;20054;-70
2021/12/12 00:57:08;;;;;;;2.70;2.60;;;;;;;-0.27;94.51;100647.22;5084713;28;20457;-70
2021/12/12 00:59:34;;;;;;;0.65;0.65;;;;;;;-0.31;94.47;100650.47;5083260;28;20024;-70
2021/12/12 01:02:01;;;;;;;0.55;0.55;;;;;;;-0.30;94.60;100652.19;5084517;28;20468;-70
2021/12/12 01:04:31;;;;;;;1.15;1.15;;;;;;;-0.32;94.49;100635.09;5083873;28;20031;-71
2021/12/12 01:07:00;;;;;;;0.40;0.40;;;;;;;-0.28;94.49;100657.34;5084458;28;20606;-71
2021/12/12 01:09:33;;;;;;;1.73;1.63;;;;;;;-0.32;94.45;100656.34;5084147;28;20048;-70
2021/12/12 01:12:02;;;;;;;0.52;0.52;;;;;;;-0.29;94.62;100663.28;5083914;28;20031;-70
2021/12/12 01:14:32;;;;;;;1.38;1.35;;;;;;;-0.32;94.65;100666.56;5084187;28;20340;-71
2021/12/12 01:17:00;;;;;;;0.65;0.65;;;;;;;-0.33;94.74;100677.59;5082814;28;20028;-73
2021/12/12 01:19:31;;;;;;;0.90;0.90;;;;;;;-0.33;94.82;100686.91;5084031;28;20483;-72
2021/12/12 01:22:04;;;;;;;0.50;0.50;;;;;;;-0.38;94.83;100689.28;5083939;28;20032;-71
2021/12/12 01:24:34;;;;;;;10.73;7.32;;;;;;;-0.38;95.10;100679.06;5084016;28;20024;-71
2021/12/12 01:27:02;;;;;;;0.63;0.63;;;;;;;-0.39;95.18;100678.22;5083795;28;20035;-70
2021/12/12 01:29:28;;;;;;;0.45;0.45;;;;;;;-0.36;94.94;100684.25;5083832;28;20496;-71
2021/12/12 01:31:56;;;;;;;0.50;0.50;;;;;;;-0.33;95.00;100689.47;5083705;28;20016;-72
2021/12/12 01:34:28;;;;;;;0.40;0.40;;;;;;;-0.35;94.96;100684.31;5082473;28;20016;-72
2021/12/12 01:39:28;;;;;;;3.30;3.03;;;;;;;-0.41;94.75;100696.81;5083876;28;20036;-71
2021/12/12 01:42:15;;;;;;;1.63;1.52;;;;;;;-0.42;94.81;100702.72;5083167;28;20062;-72
2021/12/12 01:44:58;;;;;;;0.40;0.40;;;;;;;-0.46;94.90;100698.31;5083324;28;20076;-71
2021/12/12 01:47:36;;;;;;;0.50;0.50;;;;;;;-0.44;95.04;100702.66;5083711;28;20024;-71
2021/12/12 01:50:09;;;;;;;0.40;0.40;;;;;;;-0.48;94.87;100707.56;5083338;28;20020;-71
2021/12/12 01:52:36;;;;;;;0.60;0.60;;;;;;;-0.46;95.01;100711.06;5083429;28;20408;-71
2021/12/12 01:55:28;;;;;;;0.50;0.50;;;;;;;-0.50;95.02;100702.41;5083352;28;20032;-72
2021/12/12 01:57:57;;;;;;;0.50;0.50;;;;;;;-0.48;94.98;100710.13;5083630;28;20083;-74
2021/12/12 02:00:33;;;;;;;0.50;0.50;;;;;;;-0.48;94.99;100711.00;5083653;28;20027;-75
2021/12/12 02:02:59;;;;;;;0.40;0.40;;;;;;;-0.50;95.00;100713.47;5083407;28;20111;-73
2021/12/12 02:05:28;;;;;;;0.43;0.43;;;;;;;-0.47;95.08;100714.41;5083213;28;20036;-73
2021/12/12 02:08:01;;;;;;;0.50;0.50;;;;;;;-0.48;95.09;100712.69;5083215;28;20039;-72
2021/12/12 02:10:35;;;;;;;0.40;0.40;;;;;;;-0.51;95.15;100709.19;5083095;28;20075;-72
2021/12/12 02:13:06;;;;;;;0.40;0.40;;;;;;;-0.46;95.16;100705.97;5081896;28;20074;-72
2021/12/12 02:15:35;;;;;;;1.35;1.30;;;;;;;-0.44;95.03;100709.44;5084076;28;20080;-72
2021/12/12 02:18:09;;;;;;;0.40;0.40;;;;;;;-0.45;95.10;100710.25;5090114;28;20043;-71
2021/12/12 02:20:41;;;;;;;0.40;0.40;;;;;;;-0.45;95.07;100700.06;5090098;28;20024;-71
2021/12/12 02:23:37;;;;;;;0.40;0.40;;;;;;;-0.41;95.09;100707.91;5089972;28;20038;-71
2021/12/12 02:37:06;;;;;;;1.58;1.48;;;;;;;-0.46;94.78;100686.41;5089869;28;20079;-69
2021/12/12 02:39:33;;;;;;;0.40;0.40;;;;;;;-0.48;94.97;100682.06;5089933;28;20048;-69
2021/12/12 02:42:03;;;;;;;0.40;0.40;;;;;;;-0.46;94.99;100685.56;5089346;28;20032;-69
2021/12/12 02:44:31;;;;;;;0.50;0.50;;;;;;;-0.52;94.89;100684.50;5089473;28;20020;-69
2021/12/12 02:47:00;;;;;;;3.20;3.03;;;;;;;-0.49;95.14;100681.19;5089640;28;20027;-71
2021/12/12 02:52:04;;;;;;;0.50;0.50;;;;;;;-0.51;95.34;100698.97;5089680;28;20024;-71
2021/12/12 02:54:30;;;;;;;0.50;0.50;;;;;;;-0.46;95.05;100700.88;5089408;28;20028;-72
2021/12/12 02:56:56;;;;;;;0.43;0.43;;;;;;;-0.43;95.04;100701.84;5089388;28;20028;-70
2021/12/12 02:59:23;;;;;;;0.40;0.40;;;;;;;-0.43;95.14;100701.84;5089581;28;20092;-71
2021/12/12 03:02:04;;;;;;;1.33;1.27;;;;;;;-0.35;95.29;100712.38;5089544;28;20028;-71
2021/12/12 03:04:33;;;;;;;0.50;0.50;;;;;;;-0.29;95.35;100714.31;5089518;28;20028;-71
2021/12/12 03:06:59;;;;;;;0.40;0.40;;;;;;;-0.21;95.48;100709.53;5089517;28;20025;-70
2021/12/12 03:09:29;;;;;;;0.60;0.60;;;;;;;-0.16;95.40;100700.38;5089502;28;20055;-70
2021/12/12 03:12:08;;;;;;;1.10;1.10;;;;;;;-0.09;95.37;100704.03;5089178;28;20052;-70
2021/12/12 03:14:35;;;;;;;0.40;0.40;;;;;;;-0.08;95.39;100700.69;5088091;28;20033;-71
2021/12/12 03:17:06;;;;;;;0.57;0.57;;;;;;;-0.07;95.50;100716.06;5089780;28;20139;-71
2021/12/12 03:19:31;;;;;;;0.30;0.30;;;;;;;0.02;95.53;100717.25;5089391;28;20032;-71
2021/12/12 03:21:57;;;;;;;0.40;0.40;;;;;;;0.05;95.26;100714.81;5089281;28;20077;-71
2021/12/12 03:24:27;;;;;;;0.50;0.50;;;;;;;0.05;95.12;100722.47;5089482;28;20044;-71
2021/12/12 03:26:56;;;;;;;0.45;0.45;;;;;;;0.02;94.90;100717.25;5089123;28;20024;-73
2021/12/12 03:29:23;;;;;;;0.60;0.60;;;;;;;-0.04;94.40;100716.19;5085381;28;20027;-71
2021/12/12 03:31:57;;;;;;;1.25;1.25;;;;;;;-0.13;94.54;100716.66;5086654;28;20029;-70
2021/12/12 03:34:24;;;;;;;0.50;0.50;;;;;;;-0.13;94.66;100715.81;5086164;28;20017;-70
2021/12/12 03:36:51;;;;;;;0.40;0.40;;;;;;;-0.21;94.55;100700.19;5086133;28;20031;-70
2021/12/12 03:39:29;;;;;;;0.50;0.50;;;;;;;-0.15;94.70;100723.41;5086341;28;20495;-71
2021/12/12 03:41:57;;;;;;;0.50;0.50;;;;;;;-0.14;94.84;100729.38;5085643;28;20029;-70
2021/12/12 03:44:26;;;;;;;0.40;0.40;;;;;;;-0.17;94.80;100721.59;5085958;28;20016;-71
2021/12/12 03:46:57;;;;;;;0.40;0.40;;;;;;;-0.17;94.62;100725.03;5085848;28;20024;-70
2021/12/12 03:49:23;;;;;;;0.60;0.60;;;;;;;-0.17;94.64;100725.03;5085783;28;20027;-70
2021/12/12 03:51:50;;;;;;;2.40;2.30;;;;;;;-0.18;94.60;100728.38;5085519;28;20029;-70
2021/12/12 03:54:17;;;;;;;0.70;0.70;;;;;;;-0.26;94.62;100720.38;5085632;28;20159;-70
2021/12/12 03:56:44;;;;;;;0.50;0.50;;;;;;;-0.22;94.40;100723.09;5085399;28;20024;-70
2021/12/12 03:59:12;;;;;;;0.40;0.40;;;;;;;-0.23;94.54;100713.69;5085562;28;20078;-70
2021/12/12 04:01:43;;;;;;;0.50;0.50;;;;;;;-0.27;94.55;100708.44;5085159;28;20074;-70
2021/12/12 04:04:25;;;;;;;0.45;0.45;;;;;;;-0.26;94.54;100712.75;5085604;28;20112;-70
2021/12/12 04:06:51;;;;;;;0.55;0.55;;;;;;;-0.26;94.47;100714.44;5085290;28;20093;-70
2021/12/12 04:09:18;;;;;;;0.40;0.40;;;;;;;-0.32;94.49;100715.03;5085328;28;20060;-70
2021/12/12 04:11:47;;;;;;;2.90;2.70;;;;;;;-0.30;94.84;100712.56;5084945;28;20028;-70
2021/12/12 04:14:14;;;;;;;1.38;1.33;;;;;;;-0.23;94.79;100709.47;5085188;28;20032;-69
2021/12/12 04:16:43;;;;;;;0.93;0.93;;;;;;;-0.19;94.83;100720.66;5085317;28;20047;-69
2021/12/12 04:19:09;;;;;;;1.20;1.13;;;;;;;-0.20;94.76;100718.91;5085194;28;20025;-69
2021/12/12 04:21:36;;;;;;;0.52;0.52;;;;;;;-0.31;94.35;100701.50;5085052;28;20048;-70
2021/12/12 04:24:02;;;;;;;0.40;0.40;;;;;;;-0.33;94.35;100703.09;5085335;28;20064;-70
2021/12/12 04:26:34;;;;;;;2.38;2.28;;;;;;;-0.31;94.55;100716.81;5083444;28;20027;-70
2021/12/12 04:29:13;;;;;;;0.40;0.40;;;;;;;-0.41;94.46;100712.13;5084929;28;20103;-68
2021/12/12 04:31:42;;;;;;;0.50;0.50;;;;;;;-0.29;94.49;100738.13;5084701;28;20028;-69
2021/12/12 04:34:08;;;;;;;0.80;0.80;;;;;;;-0.30;94.54;100740.63;5084875;28;20020;-69
2021/12/12 04:36:41;;;;;;;3.20;2.85;;;;;;;-0.34;94.47;100732.00;5084663;28;20094;-69
2021/12/12 04:39:12;;;;;;;1.08;1.08;;;;;;;-0.33;94.24;100735.38;5084063;28;20021;-69
2021/12/12 04:41:38;;;;;;;0.60;0.60;;;;;;;-0.34;94.04;100737.09;5084301;28;20063;-68
2021/12/12 04:44:04;;;;;;;0.70;0.70;;;;;;;-0.41;94.14;100730.84;5084743;28;20025;-69
2021/12/12 04:49:55;;;;;;;0.40;0.40;;;;;;;-0.39;94.04;100743.66;5084722;28;20063;-69
2021/12/12 04:52:15;;;;;;;0.45;0.45;;;;;;;-0.43;94.29;100739.25;5084487;28;20035;-68
2021/12/12 04:55:01;;;;;;;0.88;0.88;;;;;;;-0.43;94.26;100727.34;5084368;28;20056;-68
2021/12/12 04:57:30;;;;;;;0.40;0.40;;;;;;;-0.44;94.38;100723.06;5084312;28;20024;-69
2021/12/12 05:00:02;;;;;;;0.43;0.43;;;;;;;-0.54;94.26;100701.41;5084142;28;20024;-69
2021/12/12 05:02:46;;;;;;;0.45;0.45;;;;;;;-0.46;94.36;100711.06;5084227;28;20027;-69
2021/12/12 05:05:21;;;;;;;0.40;0.40;;;;;;;-0.43;94.13;100713.75;5084353;28;20017;-70
2021/12/12 05:08:20;;;;;;;0.77;0.77;;;;;;;-0.47;94.35;100715.28;5084218;28;20546;-69
2021/12/12 05:11:00;;;;;;;0.65;0.65;;;;;;;-0.44;94.01;100714.53;5063457;28;20045;-71
2021/12/12 05:13:37;;;;;;;0.93;0.93;;;;;;;-0.45;93.81;100708.59;5083936;28;20025;-68
2021/12/12 05:16:12;;;;;;;0.50;0.50;;;;;;;-0.56;94.06;100708.13;5084245;28;20016;-69
2021/12/12 05:18:50;;;;;;;0.40;0.40;;;;;;;-0.63;94.24;100696.81;5084370;28;20024;-69
2021/12/12 05:21:33;;;;;;;0.50;0.50;;;;;;;-0.51;93.81;100715.94;5084344;28;20024;-70
2021/12/12 05:24:03;;;;;;;0.30;0.30;;;;;;;-0.53;93.90;100710.78;5082816;28;20021;-69
2021/12/12 05:26:36;;;;;;;0.50;0.50;;;;;;;-0.56;93.87;100700.47;5083685;28;20020;-69
2021/12/12 05:29:07;;;;;;;0.95;0.90;;;;;;;-0.55;93.83;100712.44;5084397;28;20024;-69
2021/12/12 05:31:34;;;;;;;0.60;0.60;;;;;;;-0.52;93.75;100711.66;5084514;28;20024;-68
2021/12/12 05:34:00;;;;;;;0.40;0.40;;;;;;;-0.42;93.52;100710.38;5083889;28;20021;-69
2021/12/12 05:36:28;;;;;;;0.40;0.40;;;;;;;-0.50;93.51;100708.38;5083972;28;20066;-68
2021/12/12 05:38:56;;;;;;;0.40;0.40;;;;;;;-0.43;93.73;100711.19;5084123;28;20078;-69
2021/12/12 05:41:22;;;;;;;0.40;0.40;;;;;;;-0.39;93.76;100720.72;5083791;28;20029;-69
2021/12/12 05:43:52;;;;;;;0.55;0.55;;;;;;;-0.40;93.67;100716.44;5084074;28;20043;-69
2021/12/12 05:46:19;;;;;;;2.88;2.75;;;;;;;-0.34;93.65;100716.69;5084087;28;20051;-68
2021/12/12 05:48:46;;;;;;;0.40;0.40;;;;;;;-0.33;93.28;100713.31;5083912;28;20080;-70
2021/12/12 05:51:13;;;;;;;0.47;0.47;;;;;;;-0.39;93.72;100721.59;5083500;28;20038;-71
2021/12/12 05:53:38;;;;;;;0.55;0.55;;;;;;;-0.39;93.71;100715.59;5083728;28;20024;-69
2021/12/12 05:56:04;;;;;;;1.30;1.30;;;;;;;-0.36;93.56;100727.59;5082133;28;20025;-68
2021/12/12 05:58:30;;;;;;;0.73;0.70;;;;;;;-0.31;93.22;100727.00;5082555;28;20499;-68
2021/12/12 06:01:04;;;;;;;0.50;0.50;;;;;;;-0.36;93.15;100725.94;5083790;28;20107;-68
2021/12/12 06:03:37;;;;;;;0.40;0.40;;;;;;;-0.37;93.42;100734.41;5083677;28;20468;-69
2021/12/12 06:06:09;;;;;;;0.57;0.57;;;;;;;-0.35;93.20;100726.81;5083875;28;20035;-68
2021/12/12 06:08:35;;;;;;;3.20;3.00;;;;;;;-0.36;93.21;100731.03;5083514;28;20112;-70
2021/12/12 06:11:01;;;;;;;0.40;0.40;;;;;;;-0.37;93.13;100739.50;5083606;28;20032;-68
2021/12/12 06:13:28;;;;;;;2.67;2.58;;;;;;;-0.39;93.10;100743.66;5083309;28;20020;-68
2021/12/12 06:15:55;;;;;;;1.08;1.02;;;;;;;-0.38;93.31;100747.97;5083588;28;20123;-69
2021/12/12 06:18:25;;;;;;;0.65;0.65;;;;;;;-0.37;93.22;100744.63;5083660;28;20031;-69
2021/12/12 06:20:52;;;;;;;0.73;0.73;;;;;;;-0.38;93.35;100740.31;5083641;28;20404;-68
2021/12/12 06:23:20;;;;;;;0.50;0.50;;;;;;;-0.40;93.20;100732.59;5083466;28;20034;-68
2021/12/12 06:25:50;;;;;;;0.40;0.40;;;;;;;-0.32;93.12;100749.91;5083246;28;20031;-68
2021/12/12 06:28:34;;;;;;;0.50;0.50;;;;;;;-0.33;93.17;100749.03;5083178;28;20119;-68
2021/12/12 06:31:01;;;;;;;0.50;0.50;;;;;;;-0.35;93.13;100740.44;5082956;28;20444;-68
2021/12/12 06:33:28;;;;;;;0.40;0.40;;;;;;;-0.31;93.14;100760.19;5083042;28;20032;-68
2021/12/12 06:35:55;;;;;;;1.05;1.05;;;;;;;-0.36;93.44;100750.56;5083036;28;20029;-67
2021/12/12 06:38:22;;;;;;;0.50;0.50;;;;;;;-0.32;93.22;100753.31;5082881;28;20064;-68
2021/12/12 06:40:48;;;;;;;0.40;0.40;;;;;;;-0.25;92.66;100757.00;5082659;28;20058;-68
2021/12/12 06:43:16;;;;;;;0.50;0.50;;;;;;;-0.41;92.73;100740.19;5082823;28;20028;-68
2021/12/12 06:45:42;;;;;;;0.50;0.50;;;;;;;-0.29;92.74;100766.19;5082853;28;20042;-68
2021/12/12 06:48:10;;;;;;;0.50;0.50;;;;;;;-0.32;92.79;100762.66;5082728;28;20048;-69
2021/12/12 06:50:37;;;;;;;0.50;0.50;;;;;;;-0.41;92.95;100756.38;5082684;28;20097;-68
2021/12/12 06:53:04;;;;;;;5.93;5.45;;;;;;;-0.34;92.84;100770.25;5082595;28;20346;-67
2021/12/12 06:55:32;;;;;;;0.50;0.50;;;;;;;-0.36;93.07;100774.41;5082446;28;20107;-69
2021/12/12 06:57:57;;;;;;;0.50;0.50;;;;;;;-0.41;92.90;100752.94;5081268;28;20099;-69
2021/12/12 07:00:25;;;;;;;0.93;0.93;;;;;;;-0.30;92.49;100769.56;5082809;28;20033;-67
2021/12/12 07:02:51;;;;;;;0.50;0.50;;;;;;;-0.36;92.52;100768.44;5083393;28;20087;-68
2021/12/12 07:05:22;;;;;;;0.50;0.50;;;;;;;-0.37;92.59;100767.59;5086481;28;20024;-68
2021/12/12 07:07:49;;;;;;;0.43;0.43;;;;;;;-0.34;92.48;100771.94;5086507;28;20281;-68
2021/12/12 07:10:18;;;;;;;0.50;0.50;;;;;;;-0.36;92.42;100766.75;5064725;28;20072;-68
2021/12/12 07:12:44;;;;;;;0.57;0.57;;;;;;;-0.39;92.43;100782.81;5066485;28;20052;-68
2021/12/12 07:15:13;;;;;;;0.50;0.50;;;;;;;-0.42;92.67;100786.91;5066134;28;20029;-68
2021/12/12 07:17:39;;;;;;;0.60;0.60;;;;;;;-0.39;92.27;100774.28;5066371;28;20060;-68
2021/12/12 07:20:09;;;;;;;0.50;0.50;;;;;;;-0.42;92.34;100784.38;5066394;28;20029;-68
2021/12/12 07:22:35;;;;;;;0.40;0.40;;;;;;;-0.40;92.41;100782.75;5064632;28;20028;-68
2021/12/12 07:25:02;;;;;;;0.40;0.40;;;;;;;-0.43;92.75;100772.44;5065993;28;20248;-68
2021/12/12 07:27:28;;;;;;;0.43;0.43;;;;;;;-0.53;92.24;100761.81;5066116;28;20024;-68
2021/12/12 07:29:57;;;;;;;0.73;0.73;;;;;;;-0.39;92.07;100775.16;5066429;28;20029;-68
2021/12/12 07:32:25;;;;;;;0.43;0.43;;;;;;;-0.37;91.93;100785.44;5066355;28;20104;-68
2021/12/12 07:34:51;;;;;;;0.40;0.40;;;;;;;-0.40;91.98;100782.75;5066406;28;20163;-68
2021/12/12 07:37:17;;;;;;;0.50;0.50;;;;;;;-0.41;92.08;100788.66;5066257;28;20155;-67
2021/12/12 07:39:44;;;;;;;0.60;0.60;;;;;;;-0.43;92.14;100782.63;5066161;28;20051;-67
2021/12/12 07:42:12;;;;;;;0.50;0.50;;;;;;;-0.40;91.95;100788.72;5065838;28;20730;-68
2021/12/12 07:44:40;;;;;;;0.50;0.50;;;;;;;-0.38;91.57;100793.88;5065977;28;20048;-67
2021/12/12 07:47:08;;;;;;;0.50;0.50;;;;;;;-0.35;91.64;100798.25;5066129;28;20021;-68
2021/12/12 07:49:39;;;;;;;0.50;0.50;;;;;;;-0.46;91.67;100785.06;5065903;28;20098;-67
2021/12/12 07:52:09;;;;;;;0.70;0.70;;;;;;;-0.39;91.77;100800.69;5065798;28;20087;-67
2021/12/12 07:54:36;;;;;;;1.25;1.25;;;;;;;-0.30;91.33;100789.09;5065979;28;20017;-69
2021/12/12 07:57:02;;;;;;;5.78;4.53;;;;;;;-0.33;91.62;100792.41;5065759;28;20024;-68
2021/12/12 07:59:29;;;;;;;0.43;0.43;;;;;;;-0.38;91.27;100773.47;5065907;28;20085;-68
2021/12/12 08:01:54;;;;;;;0.55;0.55;;;;;;;-0.34;91.52;100783.00;5064217;28;20618;-67
2021/12/12 08:04:25;;;;;;;0.40;0.40;;;;;;;-0.38;92.18;100783.69;5065982;28;20017;-67
2021/12/12 08:06:51;;;;;;;4.28;3.97;;;;;;;-0.55;91.88;100752.34;5065922;28;20014;-68
2021/12/12 08:09:17;;;;;;;0.50;0.50;;;;;;;-0.37;91.72;100777.78;5077410;28;20055;-67
2021/12/12 08:11:44;;;;;;;0.40;0.40;;;;;;;-0.35;91.67;100782.94;5085218;28;20447;-66
2021/12/12 08:14:15;;;;;;;0.40;0.40;;;;;;;-0.29;91.37;100780.66;5085221;28;20072;-68
2021/12/12 08:16:40;;;;;;;0.40;0.40;;;;;;;-0.30;91.35;100784.88;5085615;28;20032;-67
2021/12/12 08:19:07;;;;;;;0.57;0.57;;;;;;;-0.29;91.36;100788.31;5085717;28;20104;-67
2021/12/12 08:21:33;;;;;;;0.75;0.75;;;;;;;-0.46;91.00;100749.34;5085494;28;20459;-68
2021/12/12 08:24:07;;;;;;;0.40;0.40;;;;;;;-0.26;91.08;100781.63;5085401;28;20016;-67
2021/12/12 08:26:37;;;;;;;0.40;0.40;;;;;;;-0.24;91.30;100788.50;5085304;28;20028;-66
2021/12/12 08:29:08;;;;;;;0.50;0.50;;;;;;;-0.36;91.14;100764.22;5085495;28;20020;-66
2021/12/12 08:31:34;;;;;;;0.45;0.45;;;;;;;-0.31;91.14;100787.38;5085395;28;20031;-68
2021/12/12 08:34:01;;;;;;;0.45;0.45;;;;;;;-0.30;91.32;100782.31;5085147;28;20024;-70
2021/12/12 08:36:27;;;;;;;0.40;0.40;;;;;;;-0.21;90.90;100783.53;5085354;28;20024;-69
2021/12/12 08:38:52;;;;;;;0.50;0.50;;;;;;;-0.28;91.54;100790.03;5085494;28;20031;-69
2021/12/12 08:41:19;;;;;;;0.40;0.40;;;;;;;-0.23;91.57;100785.13;5083662;28;20025;-67
2021/12/12 08:43:45;;;;;;;0.40;0.40;;;;;;;-0.41;91.58;100751.25;5085181;28;20076;-71
2021/12/12 08:46:14;;;;;;;12.55;6.07;;;;;;;-0.24;91.44;100766.41;5083594;28;20107;-72
2021/12/12 08:48:43;;;;;;;0.50;0.50;;;;;;;-0.24;91.61;100776.63;5085036;28;20107;-72
2021/12/12 08:51:25;;;;;;;0.90;0.90;;;;;;;-0.29;91.34;100766.19;5085077;28;20028;-71
2021/12/12 08:53:51;;;;;;;;;;;;;;;-0.14;90.79;100763.44;5085189;28;20024;-74
2021/12/12 08:56:30;;;;;;;0.50;0.50;;;;;;;-0.15;90.38;100771.03;5084567;28;19943;-75
2021/12/12 08:58:57;;;;;;;0.50;0.50;;;;;;;-0.28;90.82;100760.31;5083328;28;20071;-71
2021/12/12 09:01:23;;;;;;;0.43;0.43;;;;;;;-0.17;90.50;100776.06;5084990;28;20151;-72
2021/12/12 09:03:55;;;;;;;0.40;0.40;;;;;;;-0.21;90.52;100758.88;5084669;28;20016;-73
2021/12/12 09:06:25;;;;;;;0.40;0.40;;;;;;;-0.16;90.41;100759.06;5083382;28;20032;-75
2021/12/12 09:09:14;;;;;;;0.40;0.40;;;;;;;-0.17;90.57;100758.19;5084331;28;20045;-72
2021/12/12 09:11:49;;;;;;;1.30;1.30;;;;;;;-0.17;90.46;100762.41;5084415;28;20048;-72
2021/12/12 09:14:23;;;;;;;3.92;3.70;;;;;;;-0.15;90.54;100769.34;5084285;28;20020;-73
2021/12/12 09:17:08;;;;;;;14.63;4.68;;;;;;;-0.14;90.26;100765.09;5084551;28;20047;-74
2021/12/12 09:19:40;;;;;;;0.40;0.40;;;;;;;-0.18;90.57;100760.69;5084413;28;20042;-74
2021/12/12 09:22:16;;;;;;;0.50;0.50;;;;;;;-0.17;90.80;100760.75;5084176;28;20528;-73
2021/12/12 09:24:58;;;;;;;0.60;0.60;;;;;;;-0.11;90.60;100762.66;5084418;28;20051;-70
2021/12/12 09:27:26;;;;;;;0.82;0.82;;;;;;;-0.15;90.61;100763.38;5083743;28;20032;-68
2021/12/12 09:29:58;;;;;;;0.50;0.50;;;;;;;-0.09;90.50;100762.72;5084073;28;20052;-69
2021/12/12 09:32:35;;;;;;;0.60;0.60;;;;;;;-0.09;90.41;100758.50;5084110;28;20025;-70
2021/12/12 09:35:09;;;;;;;1.95;1.85;;;;;;;-0.06;90.16;100757.75;5084009;28;20457;-71
2021/12/12 09:37:45;;;;;;;0.50;0.50;;;;;;;-0.10;90.18;100754.22;5083883;28;20035;-69
2021/12/12 09:40:24;;;;;;;0.40;0.40;;;;;;;-0.07;90.38;100771.34;5083897;28;20039;-70
2021/12/12 09:43:05;;;;;;;0.40;0.40;;;;;;;0.06;89.90;100759.94;5083909;28;20151;-71
2021/12/12 09:45:59;;;;;;;0.60;0.60;;;;;;;-0.06;90.40;100763.75;5083323;28;20055;-71
2021/12/12 09:52:06;;;;;;;0.60;0.60;;;;;;;-0.01;90.29;100754.59;5083886;28;20090;-73
2021/12/12 09:54:53;;;;;;;1.17;1.17;;;;;;;0.05;90.38;100756.50;5052235;28;20119;-74
2021/12/12 09:57:54;;;;;;;0.73;0.73;;;;;;;0.02;90.72;100753.84;5083122;28;20056;-73
2021/12/12 10:00:49;;;;;;;0.50;0.50;;;;;;;0.07;90.71;100756.56;5078003;28;20113;-73
2021/12/12 10:03:29;;;;;;;0.47;0.47;;;;;;;0.08;90.70;100748.13;5083654;28;20150;-74
2021/12/12 10:06:16;;;;;;;0.40;0.40;;;;;;;0.11;90.50;100748.25;5083743;28;20031;-75
2021/12/12 10:09:08;;;;;;;0.50;0.50;;;;;;;0.12;90.49;100757.63;5083378;28;20051;-75
2021/12/12 10:11:44;;;;;;;0.50;0.50;;;;;;;0.01;90.88;100747.00;5082054;28;20478;-76
2021/12/12 10:14:52;;;;;;;0.50;0.50;;;;;;;0.07;91.18;100747.25;5083553;28;20123;-76
2021/12/12 10:17:26;;;;;;;0.50;0.50;;;;;;;0.14;90.79;100748.38;5083638;28;20025;-77
2021/12/12 10:20:09;;;;;;;0.50;0.50;;;;;;;0.08;90.93;100743.00;5081728;28;20256;-76
2021/12/12 10:23:00;;;;;;;0.40;0.40;;;;;;;0.13;91.21;100741.50;5083494;28;20103;-75
2021/12/12 10:25:41;;;;;;;0.47;0.47;;;;;;;0.26;90.35;100734.34;5081783;28;20021;-76
2021/12/12 10:28:25;;;;;;;0.65;0.65;;;;;;;0.31;90.07;100733.69;5083106;28;20012;-75
2021/12/12 10:31:16;;;;;;;0.68;0.68;;;;;;;0.35;89.61;100734.69;5083181;28;20035;-76
2021/12/12 10:34:07;;;;;;;0.50;0.50;;;;;;;0.34;90.12;100743.16;5003811;28;20056;-75
2021/12/12 10:36:42;;;;;;;0.40;0.40;;;;;;;0.23;90.44;100741.06;5020698;28;20034;-74
2021/12/12 10:39:22;;;;;;;0.40;0.40;;;;;;;0.32;90.52;100744.78;5024301;28;20034;-74
2021/12/12 10:41:55;;;;;;;0.75;0.75;;;;;;;0.48;89.63;100747.13;5024325;28;20026;-73
2021/12/12 10:44:27;;;;;;;0.50;0.50;;;;;;;0.44;89.82;100739.28;5007468;28;20065;-72
2021/12/12 10:47:19;;;;;;;0.50;0.50;;;;;;;0.49;89.69;100755.66;5024344;28;20510;-72
2021/12/12 10:50:07;;;;;;;0.50;0.50;;;;;;;0.41;90.67;100752.81;5007671;28;20061;-71
2021/12/12 10:53:09;;;;;;;0.50;0.50;;;;;;;0.44;91.03;100755.47;5007822;28;20080;-70
2021/12/12 10:55:47;;;;;;;0.52;0.52;;;;;;;0.35;91.13;100734.69;5007337;28;20073;-71
2021/12/12 10:58:23;;;;;;;0.50;0.50;;;;;;;0.53;90.83;100754.09;5024160;28;20233;-69
2021/12/12 11:00:54;;;;;;;0.50;0.50;;;;;;;0.57;90.81;100756.84;5007369;28;20041;-69
2021/12/12 11:03:27;;;;;;;0.50;0.50;;;;;;;0.60;90.80;100746.72;5007745;28;20029;-70
2021/12/12 11:06:01;;;;;;;0.40;0.40;;;;;;;0.68;90.31;100739.34;5024082;28;20049;-72
2021/12/12 11:08:38;;;;;;;3.85;3.55;;;;;;;0.81;89.48;100740.69;5007392;28;20458;-73
2021/12/12 11:11:11;;;;;;;0.40;0.40;;;;;;;0.66;89.49;100722.19;5064314;28;20043;-71
2021/12/12 11:13:48;;;;;;;1.15;1.15;;;;;;;0.91;89.27;100746.97;5085248;28;20021;-72
2021/12/12 11:16:28;;;;;;;0.50;0.50;;;;;;;0.77;89.57;100740.50;5087117;28;20016;-73
2021/12/12 11:19:15;;;;;;;0.50;0.50;;;;;;;0.81;89.22;100725.34;5086012;28;20029;-74
2021/12/12 11:21:45;;;;;;;0.40;0.40;;;;;;;0.95;88.83;100753.09;5087418;28;20092;-67
2021/12/12 11:24:26;;;;;;;0.50;0.50;;;;;;;0.82;89.69;100747.53;5093734;28;20037;-73
2021/12/12 11:27:09;;;;;;;1.27;1.23;;;;;;;0.82;90.12;100744.09;5085777;28;20013;-74
2021/12/12 11:29:41;;;;;;;0.60;0.60;;;;;;;0.77;90.41;100745.63;5085927;28;20032;-72
2021/12/12 11:32:17;;;;;;;0.50;0.50;;;;;;;0.79;91.21;100751.66;5085562;28;20024;-72
2021/12/12 11:34:47;;;;;;;0.50;0.50;;;;;;;0.81;90.67;100737.25;5085930;28;20090;-73
2021/12/12 11:37:29;;;;;;;0.40;0.40;;;;;;;0.84;90.48;100738.25;5085866;28;20024;-74
2021/12/12 11:40:06;;;;;;;2.25;2.15;;;;;;;0.85;90.10;100744.19;5085909;28;20028;-73
2021/12/12 11:42:44;;;;;;;0.50;0.50;;;;;;;0.82;90.26;100736.41;5085394;28;20055;-74
2021/12/12 11:45:31;;;;;;;0.50;0.50;;;;;;;0.85;90.63;100756.97;5084173;28;20055;-75
2021/12/12 11:48:10;;;;;;;0.50;0.50;;;;;;;0.88;90.22;100736.66;5084405;28;20040;-74
2021/12/12 11:51:01;;;;;;;12.00;2.45;;;;;;;0.89;90.31;100743.53;5084185;28;20024;-76
2021/12/12 11:53:44;;;;;;;0.50;0.50;;;;;;;0.96;89.74;100730.13;5085459;28;20021;-74
2021/12/12 11:56:18;;;;;;;0.40;0.40;;;;;;;0.92;90.12;100743.63;5085635;28;20027;-74
2021/12/12 11:58:56;;;;;;;0.52;0.52;;;;;;;0.94;90.24;100746.25;5085830;28;20025;-72
2021/12/12 12:01:31;;;;;;;0.40;0.40;;;;;;;1.15;89.19;100751.25;5085521;28;20025;-74
2021/12/12 12:04:11;;;;;;;0.50;0.50;;;;;;;1.19;88.67;100752.22;5084032;28;20432;-73
2021/12/12 12:07:02;;;;;;;1.25;1.25;;;;;;;1.17;89.01;100747.06;5085248;28;20028;-74
2021/12/12 12:09:34;;;;;;;0.60;0.60;;;;;;;1.18;88.63;100753.91;5085403;28;20040;-75
2021/12/12 12:12:13;;;;;;;0.60;0.60;;;;;;;1.08;88.93;100739.06;5085169;28;20032;-75
2021/12/12 12:14:58;;;;;;;1.23;1.23;;;;;;;1.06;88.98;100725.34;5084081;28;20031;-76